sensor_id;sensor_type;location;lat;lon;timestamp;temperature;humidity
69533;DHT22;56729;52.036;5.332;2023-03-04T00:00:45;7.00;98.20
69533;DHT22;56729;52.036;5.332;2023-03-04T00:01:48;7.00;98.10
69533;DHT22;56729;52.036;5.332;2023-03-04T00:02:51;7.00;98.00
69533;DHT22;56729;52.036;5.332;2023-03-04T00:03:52;7.00;98.00
69533;DHT22;56729;52.036;5.332;2023-03-04T00:04:54;7.00;98.00
69533;DHT22;56729;52.036;5.332;2023-03-04T00:05:56;7.00;98.00
69533;DHT22;56729;52.036;5.332;2023-03-04T00:06:58;7.00;98.00
69533;DHT22;56729;52.036;5.332;2023-03-04T00:07:59;7.00;98.10
69533;DHT22;56729;52.036;5.332;2023-03-04T00:09:02;7.00;98.10
69533;DHT22;56729;52.036;5.332;2023-03-04T00:10:05;7.00;98.10
69533;DHT22;56729;52.036;5.332;2023-03-04T00:11:07;7.00;98.00
69533;DHT22;56729;52.036;5.332;2023-03-04T00:12:09;7.00;98.00
69533;DHT22;56729;52.036;5.332;2023-03-04T00:13:11;7.00;98.10
69533;DHT22;56729;52.036;5.332;2023-03-04T00:14:14;7.00;98.10
69533;DHT22;56729;52.036;5.332;2023-03-04T00:15:16;7.00;98.10
69533;DHT22;56729;52.036;5.332;2023-03-04T00:16:18;7.00;98.10
69533;DHT22;56729;52.036;5.332;2023-03-04T00:17:20;7.00;98.10
69533;DHT22;56729;52.036;5.332;2023-03-04T00:18:22;7.00;98.10
69533;DHT22;56729;52.036;5.332;2023-03-04T00:19:25;7.00;98.20
69533;DHT22;56729;52.036;5.332;2023-03-04T00:20:28;7.00;98.10
69533;DHT22;56729;52.036;5.332;2023-03-04T00:21:30;7.00;98.10
69533;DHT22;56729;52.036;5.332;2023-03-04T00:22:32;7.00;98.10
69533;DHT22;56729;52.036;5.332;2023-03-04T00:23:33;7.00;98.10
69533;DHT22;56729;52.036;5.332;2023-03-04T00:24:35;7.00;98.10
69533;DHT22;56729;52.036;5.332;2023-03-04T00:25:37;7.00;98.20
69533;DHT22;56729;52.036;5.332;2023-03-04T00:26:39;6.90;98.20
69533;DHT22;56729;52.036;5.332;2023-03-04T00:27:42;7.00;98.20
69533;DHT22;56729;52.036;5.332;2023-03-04T00:28:44;7.00;98.20
69533;DHT22;56729;52.036;5.332;2023-03-04T00:29:46;7.00;98.20
69533;DHT22;56729;52.036;5.332;2023-03-04T00:30:48;7.00;98.20
69533;DHT22;56729;52.036;5.332;2023-03-04T00:31:50;7.00;98.20
69533;DHT22;56729;52.036;5.332;2023-03-04T00:32:51;7.00;98.20
69533;DHT22;56729;52.036;5.332;2023-03-04T00:33:53;7.00;98.10
69533;DHT22;56729;52.036;5.332;2023-03-04T00:34:55;7.00;98.20
69533;DHT22;56729;52.036;5.332;2023-03-04T00:35:57;7.00;98.20
69533;DHT22;56729;52.036;5.332;2023-03-04T00:36:59;7.00;98.20
69533;DHT22;56729;52.036;5.332;2023-03-04T00:38:02;7.00;98.30
69533;DHT22;56729;52.036;5.332;2023-03-04T00:39:04;7.00;98.30
69533;DHT22;56729;52.036;5.332;2023-03-04T00:40:07;7.00;98.30
69533;DHT22;56729;52.036;5.332;2023-03-04T00:41:09;7.00;98.30
69533;DHT22;56729;52.036;5.332;2023-03-04T00:42:11;7.00;98.30
69533;DHT22;56729;52.036;5.332;2023-03-04T00:43:13;7.00;98.20
69533;DHT22;56729;52.036;5.332;2023-03-04T00:44:15;7.00;98.20
69533;DHT22;56729;52.036;5.332;2023-03-04T00:45:17;7.00;98.10
69533;DHT22;56729;52.036;5.332;2023-03-04T00:46:18;7.00;98.20
69533;DHT22;56729;52.036;5.332;2023-03-04T00:47:20;7.00;98.30
69533;DHT22;56729;52.036;5.332;2023-03-04T00:48:22;7.00;98.20
69533;DHT22;56729;52.036;5.332;2023-03-04T00:49:24;7.00;98.20
69533;DHT22;56729;52.036;5.332;2023-03-04T00:50:26;7.00;98.30
69533;DHT22;56729;52.036;5.332;2023-03-04T00:51:28;7.00;98.20
69533;DHT22;56729;52.036;5.332;2023-03-04T00:52:30;7.00;98.20
69533;DHT22;56729;52.036;5.332;2023-03-04T00:53:32;7.00;98.20
69533;DHT22;56729;52.036;5.332;2023-03-04T00:54:34;6.90;98.60
69533;DHT22;56729;52.036;5.332;2023-03-04T00:55:36;7.00;98.10
69533;DHT22;56729;52.036;5.332;2023-03-04T00:56:38;6.90;98.10
69533;DHT22;56729;52.036;5.332;2023-03-04T00:57:39;6.90;98.10
69533;DHT22;56729;52.036;5.332;2023-03-04T00:58:41;6.90;98.10
69533;DHT22;56729;52.036;5.332;2023-03-04T00:59:44;6.90;98.10
69533;DHT22;56729;52.036;5.332;2023-03-04T01:00:46;6.90;98.10
69533;DHT22;56729;52.036;5.332;2023-03-04T01:01:48;7.00;98.10
69533;DHT22;56729;52.036;5.332;2023-03-04T01:02:51;6.90;98.50
69533;DHT22;56729;52.036;5.332;2023-03-04T01:03:53;7.00;98.10
69533;DHT22;56729;52.036;5.332;2023-03-04T01:04:55;6.90;98.00
69533;DHT22;56729;52.036;5.332;2023-03-04T01:05:57;7.00;98.00
69533;DHT22;56729;52.036;5.332;2023-03-04T01:06:59;6.90;97.90
69533;DHT22;56729;52.036;5.332;2023-03-04T01:08:03;6.90;97.90
69533;DHT22;56729;52.036;5.332;2023-03-04T01:09:05;6.90;98.00
69533;DHT22;56729;52.036;5.332;2023-03-04T01:10:11;6.90;98.00
69533;DHT22;56729;52.036;5.332;2023-03-04T01:11:13;6.90;98.00
69533;DHT22;56729;52.036;5.332;2023-03-04T01:12:15;6.90;98.00
69533;DHT22;56729;52.036;5.332;2023-03-04T01:13:17;6.90;98.00
69533;DHT22;56729;52.036;5.332;2023-03-04T01:14:19;6.90;98.00
69533;DHT22;56729;52.036;5.332;2023-03-04T01:15:22;6.90;98.00
69533;DHT22;56729;52.036;5.332;2023-03-04T01:16:24;6.90;98.00
69533;DHT22;56729;52.036;5.332;2023-03-04T01:17:26;6.90;98.10
69533;DHT22;56729;52.036;5.332;2023-03-04T01:18:28;6.90;98.10
69533;DHT22;56729;52.036;5.332;2023-03-04T01:19:30;6.90;98.10
69533;DHT22;56729;52.036;5.332;2023-03-04T01:20:32;6.90;98.10
69533;DHT22;56729;52.036;5.332;2023-03-04T01:21:36;6.90;98.20
69533;DHT22;56729;52.036;5.332;2023-03-04T01:22:38;6.90;98.10
69533;DHT22;56729;52.036;5.332;2023-03-04T01:23:41;6.90;98.10
69533;DHT22;56729;52.036;5.332;2023-03-04T01:24:43;7.00;98.20
69533;DHT22;56729;52.036;5.332;2023-03-04T01:25:45;7.00;98.20
69533;DHT22;56729;52.036;5.332;2023-03-04T01:26:47;7.00;98.20
69533;DHT22;56729;52.036;5.332;2023-03-04T01:27:48;7.00;98.30
69533;DHT22;56729;52.036;5.332;2023-03-04T01:28:53;7.00;98.30
69533;DHT22;56729;52.036;5.332;2023-03-04T01:29:55;7.00;98.30
69533;DHT22;56729;52.036;5.332;2023-03-04T01:30:56;7.00;98.30
69533;DHT22;56729;52.036;5.332;2023-03-04T01:31:58;7.00;98.30
69533;DHT22;56729;52.036;5.332;2023-03-04T01:33:00;7.00;98.20
69533;DHT22;56729;52.036;5.332;2023-03-04T01:34:02;7.00;98.30
69533;DHT22;56729;52.036;5.332;2023-03-04T01:35:05;7.00;98.10
69533;DHT22;56729;52.036;5.332;2023-03-04T01:36:07;7.00;98.10
69533;DHT22;56729;52.036;5.332;2023-03-04T01:37:10;7.00;98.10
69533;DHT22;56729;52.036;5.332;2023-03-04T01:38:14;6.90;98.10
69533;DHT22;56729;52.036;5.332;2023-03-04T01:39:15;6.90;98.10
69533;DHT22;56729;52.036;5.332;2023-03-04T01:40:18;6.90;98.30
69533;DHT22;56729;52.036;5.332;2023-03-04T01:41:23;6.90;98.30
69533;DHT22;56729;52.036;5.332;2023-03-04T01:42:27;6.90;98.40
69533;DHT22;56729;52.036;5.332;2023-03-04T01:43:31;6.90;98.30
69533;DHT22;56729;52.036;5.332;2023-03-04T01:44:33;6.90;98.30
69533;DHT22;56729;52.036;5.332;2023-03-04T01:45:35;6.90;98.40
69533;DHT22;56729;52.036;5.332;2023-03-04T01:46:44;6.90;98.50
69533;DHT22;56729;52.036;5.332;2023-03-04T01:47:48;6.90;98.50
69533;DHT22;56729;52.036;5.332;2023-03-04T01:48:51;6.90;98.50
69533;DHT22;56729;52.036;5.332;2023-03-04T01:49:55;6.90;98.40
69533;DHT22;56729;52.036;5.332;2023-03-04T01:50:57;6.90;98.40
69533;DHT22;56729;52.036;5.332;2023-03-04T01:52:07;6.90;98.50
69533;DHT22;56729;52.036;5.332;2023-03-04T01:53:19;6.90;98.50
69533;DHT22;56729;52.036;5.332;2023-03-04T01:54:22;6.90;98.50
69533;DHT22;56729;52.036;5.332;2023-03-04T01:55:24;6.90;98.50
69533;DHT22;56729;52.036;5.332;2023-03-04T01:56:36;6.90;98.50
69533;DHT22;56729;52.036;5.332;2023-03-04T01:57:39;6.90;98.60
69533;DHT22;56729;52.036;5.332;2023-03-04T01:58:41;6.90;98.50
69533;DHT22;56729;52.036;5.332;2023-03-04T01:59:44;6.90;98.50
69533;DHT22;56729;52.036;5.332;2023-03-04T02:00:46;6.90;99.00
69533;DHT22;56729;52.036;5.332;2023-03-04T02:01:51;6.90;98.50
69533;DHT22;56729;52.036;5.332;2023-03-04T02:03:00;6.90;98.60
69533;DHT22;56729;52.036;5.332;2023-03-04T02:04:03;6.90;98.70
69533;DHT22;56729;52.036;5.332;2023-03-04T02:05:05;6.90;98.70
69533;DHT22;56729;52.036;5.332;2023-03-04T02:06:07;6.90;98.70
69533;DHT22;56729;52.036;5.332;2023-03-04T02:07:09;6.90;98.70
69533;DHT22;56729;52.036;5.332;2023-03-04T02:08:11;6.90;98.70
69533;DHT22;56729;52.036;5.332;2023-03-04T02:09:15;6.90;98.70
69533;DHT22;56729;52.036;5.332;2023-03-04T02:10:19;6.90;98.70
69533;DHT22;56729;52.036;5.332;2023-03-04T02:11:21;6.90;99.10
69533;DHT22;56729;52.036;5.332;2023-03-04T02:12:23;6.90;98.80
69533;DHT22;56729;52.036;5.332;2023-03-04T02:13:25;6.90;98.80
69533;DHT22;56729;52.036;5.332;2023-03-04T02:14:27;6.90;98.80
69533;DHT22;56729;52.036;5.332;2023-03-04T02:15:29;6.90;98.80
69533;DHT22;56729;52.036;5.332;2023-03-04T02:16:31;6.90;98.70
69533;DHT22;56729;52.036;5.332;2023-03-04T02:17:35;6.90;98.70
69533;DHT22;56729;52.036;5.332;2023-03-04T02:18:37;6.90;98.60
69533;DHT22;56729;52.036;5.332;2023-03-04T02:19:50;6.90;98.60
69533;DHT22;56729;52.036;5.332;2023-03-04T02:22:07;6.90;98.60
69533;DHT22;56729;52.036;5.332;2023-03-04T02:23:21;6.90;98.50
69533;DHT22;56729;52.036;5.332;2023-03-04T02:25:50;6.90;98.50
69533;DHT22;56729;52.036;5.332;2023-03-04T02:26:53;6.90;98.50
69533;DHT22;56729;52.036;5.332;2023-03-04T02:27:56;6.90;98.50
69533;DHT22;56729;52.036;5.332;2023-03-04T02:28:59;6.90;98.60
69533;DHT22;56729;52.036;5.332;2023-03-04T02:30:03;6.90;98.60
69533;DHT22;56729;52.036;5.332;2023-03-04T02:31:05;6.90;98.60
69533;DHT22;56729;52.036;5.332;2023-03-04T02:32:10;6.90;98.50
69533;DHT22;56729;52.036;5.332;2023-03-04T02:33:16;6.90;98.50
69533;DHT22;56729;52.036;5.332;2023-03-04T02:35:22;6.90;98.50
69533;DHT22;56729;52.036;5.332;2023-03-04T02:36:24;6.90;98.50
69533;DHT22;56729;52.036;5.332;2023-03-04T02:37:26;6.90;98.50
69533;DHT22;56729;52.036;5.332;2023-03-04T02:38:29;6.90;98.50
69533;DHT22;56729;52.036;5.332;2023-03-04T02:39:35;6.90;98.50
69533;DHT22;56729;52.036;5.332;2023-03-04T02:40:42;6.90;98.40
69533;DHT22;56729;52.036;5.332;2023-03-04T02:41:47;6.90;98.40
69533;DHT22;56729;52.036;5.332;2023-03-04T02:42:49;6.90;98.30
69533;DHT22;56729;52.036;5.332;2023-03-04T02:43:53;6.90;98.30
69533;DHT22;56729;52.036;5.332;2023-03-04T02:45:00;6.80;98.30
69533;DHT22;56729;52.036;5.332;2023-03-04T02:46:02;6.90;98.30
69533;DHT22;56729;52.036;5.332;2023-03-04T02:47:06;6.80;98.30
69533;DHT22;56729;52.036;5.332;2023-03-04T02:48:10;6.80;98.30
69533;DHT22;56729;52.036;5.332;2023-03-04T02:49:13;6.80;98.40
69533;DHT22;56729;52.036;5.332;2023-03-04T02:50:15;6.90;98.40
69533;DHT22;56729;52.036;5.332;2023-03-04T02:51:18;6.90;98.30
69533;DHT22;56729;52.036;5.332;2023-03-04T02:52:24;6.80;98.30
69533;DHT22;56729;52.036;5.332;2023-03-04T02:53:26;6.80;98.40
69533;DHT22;56729;52.036;5.332;2023-03-04T02:54:30;6.90;98.40
69533;DHT22;56729;52.036;5.332;2023-03-04T02:55:32;6.90;98.40
69533;DHT22;56729;52.036;5.332;2023-03-04T02:56:34;6.90;98.30
69533;DHT22;56729;52.036;5.332;2023-03-04T02:57:36;6.90;98.30
69533;DHT22;56729;52.036;5.332;2023-03-04T02:58:38;6.90;98.30
69533;DHT22;56729;52.036;5.332;2023-03-04T02:59:42;6.90;98.50
69533;DHT22;56729;52.036;5.332;2023-03-04T03:00:49;6.90;98.40
69533;DHT22;56729;52.036;5.332;2023-03-04T03:01:52;6.90;98.40
69533;DHT22;56729;52.036;5.332;2023-03-04T03:02:55;6.90;98.40
69533;DHT22;56729;52.036;5.332;2023-03-04T03:03:57;6.90;98.40
69533;DHT22;56729;52.036;5.332;2023-03-04T03:04:59;6.90;98.30
69533;DHT22;56729;52.036;5.332;2023-03-04T03:06:02;6.90;98.30
69533;DHT22;56729;52.036;5.332;2023-03-04T03:07:04;6.90;98.30
69533;DHT22;56729;52.036;5.332;2023-03-04T03:08:07;6.90;98.30
69533;DHT22;56729;52.036;5.332;2023-03-04T03:09:09;6.90;98.30
69533;DHT22;56729;52.036;5.332;2023-03-04T03:10:11;6.90;98.30
69533;DHT22;56729;52.036;5.332;2023-03-04T03:11:14;6.90;98.30
69533;DHT22;56729;52.036;5.332;2023-03-04T03:12:16;6.90;98.40
69533;DHT22;56729;52.036;5.332;2023-03-04T03:13:17;6.90;98.40
69533;DHT22;56729;52.036;5.332;2023-03-04T03:14:19;6.90;98.40
69533;DHT22;56729;52.036;5.332;2023-03-04T03:15:21;6.90;98.40
69533;DHT22;56729;52.036;5.332;2023-03-04T03:16:24;6.90;98.30
69533;DHT22;56729;52.036;5.332;2023-03-04T03:17:26;6.90;98.30
69533;DHT22;56729;52.036;5.332;2023-03-04T03:18:27;6.90;98.30
69533;DHT22;56729;52.036;5.332;2023-03-04T03:19:29;6.90;98.30
69533;DHT22;56729;52.036;5.332;2023-03-04T03:20:34;6.90;98.40
69533;DHT22;56729;52.036;5.332;2023-03-04T03:21:36;6.90;98.40
69533;DHT22;56729;52.036;5.332;2023-03-04T03:22:38;6.90;98.40
69533;DHT22;56729;52.036;5.332;2023-03-04T03:23:40;6.90;98.80
69533;DHT22;56729;52.036;5.332;2023-03-04T03:24:42;6.90;98.40
69533;DHT22;56729;52.036;5.332;2023-03-04T03:25:44;6.90;98.40
69533;DHT22;56729;52.036;5.332;2023-03-04T03:26:46;6.90;98.40
69533;DHT22;56729;52.036;5.332;2023-03-04T03:27:48;6.90;98.40
69533;DHT22;56729;52.036;5.332;2023-03-04T03:28:51;6.90;98.40
69533;DHT22;56729;52.036;5.332;2023-03-04T03:29:52;6.90;98.30
69533;DHT22;56729;52.036;5.332;2023-03-04T03:30:54;6.90;98.30
69533;DHT22;56729;52.036;5.332;2023-03-04T03:32:01;6.90;98.70
69533;DHT22;56729;52.036;5.332;2023-03-04T03:33:03;6.90;98.30
69533;DHT22;56729;52.036;5.332;2023-03-04T03:34:05;6.90;98.30
69533;DHT22;56729;52.036;5.332;2023-03-04T03:35:07;6.90;98.30
69533;DHT22;56729;52.036;5.332;2023-03-04T03:36:09;6.90;98.30
69533;DHT22;56729;52.036;5.332;2023-03-04T03:37:12;6.90;98.30
69533;DHT22;56729;52.036;5.332;2023-03-04T03:38:14;6.80;98.20
69533;DHT22;56729;52.036;5.332;2023-03-04T03:39:17;6.80;98.20
69533;DHT22;56729;52.036;5.332;2023-03-04T03:40:18;6.80;98.10
69533;DHT22;56729;52.036;5.332;2023-03-04T03:41:20;6.80;98.00
69533;DHT22;56729;52.036;5.332;2023-03-04T03:42:22;6.80;98.00
69533;DHT22;56729;52.036;5.332;2023-03-04T03:43:24;6.80;98.10
69533;DHT22;56729;52.036;5.332;2023-03-04T03:44:26;6.80;98.10
69533;DHT22;56729;52.036;5.332;2023-03-04T03:45:28;6.80;98.10
69533;DHT22;56729;52.036;5.332;2023-03-04T03:46:30;6.80;98.10
69533;DHT22;56729;52.036;5.332;2023-03-04T03:47:32;6.80;98.10
69533;DHT22;56729;52.036;5.332;2023-03-04T03:48:33;6.80;98.10
69533;DHT22;56729;52.036;5.332;2023-03-04T03:49:35;6.80;98.10
69533;DHT22;56729;52.036;5.332;2023-03-04T03:50:37;6.80;98.10
69533;DHT22;56729;52.036;5.332;2023-03-04T03:51:39;6.80;98.10
69533;DHT22;56729;52.036;5.332;2023-03-04T03:52:41;6.80;98.10
69533;DHT22;56729;52.036;5.332;2023-03-04T03:53:43;6.80;98.00
69533;DHT22;56729;52.036;5.332;2023-03-04T03:54:45;6.80;98.00
69533;DHT22;56729;52.036;5.332;2023-03-04T03:55:47;6.80;97.80
69533;DHT22;56729;52.036;5.332;2023-03-04T03:56:48;6.80;97.80
69533;DHT22;56729;52.036;5.332;2023-03-04T03:57:50;6.80;97.80
69533;DHT22;56729;52.036;5.332;2023-03-04T03:58:52;6.80;97.90
69533;DHT22;56729;52.036;5.332;2023-03-04T03:59:54;6.80;98.00
69533;DHT22;56729;52.036;5.332;2023-03-04T04:00:56;6.80;97.90
69533;DHT22;56729;52.036;5.332;2023-03-04T04:01:59;6.80;98.00
69533;DHT22;56729;52.036;5.332;2023-03-04T04:03:01;6.80;98.00
69533;DHT22;56729;52.036;5.332;2023-03-04T04:04:03;6.80;98.10
69533;DHT22;56729;52.036;5.332;2023-03-04T04:05:06;6.80;98.10
69533;DHT22;56729;52.036;5.332;2023-03-04T04:06:08;6.80;98.10
69533;DHT22;56729;52.036;5.332;2023-03-04T04:07:10;6.80;98.10
69533;DHT22;56729;52.036;5.332;2023-03-04T04:08:18;6.80;98.10
69533;DHT22;56729;52.036;5.332;2023-03-04T04:09:20;6.80;98.20
69533;DHT22;56729;52.036;5.332;2023-03-04T04:10:22;6.90;98.30
69533;DHT22;56729;52.036;5.332;2023-03-04T04:11:24;6.90;98.20
69533;DHT22;56729;52.036;5.332;2023-03-04T04:12:26;6.90;98.30
69533;DHT22;56729;52.036;5.332;2023-03-04T04:13:27;6.90;98.30
69533;DHT22;56729;52.036;5.332;2023-03-04T04:14:29;6.90;98.30
69533;DHT22;56729;52.036;5.332;2023-03-04T04:15:31;6.90;98.30
69533;DHT22;56729;52.036;5.332;2023-03-04T04:16:33;6.90;98.30
69533;DHT22;56729;52.036;5.332;2023-03-04T04:17:35;6.90;98.30
69533;DHT22;56729;52.036;5.332;2023-03-04T04:18:37;6.90;98.30
69533;DHT22;56729;52.036;5.332;2023-03-04T04:19:39;6.80;98.20
69533;DHT22;56729;52.036;5.332;2023-03-04T04:20:42;6.80;98.20
69533;DHT22;56729;52.036;5.332;2023-03-04T04:21:44;6.80;98.20
69533;DHT22;56729;52.036;5.332;2023-03-04T04:22:45;6.80;98.30
69533;DHT22;56729;52.036;5.332;2023-03-04T04:23:47;6.80;98.30
69533;DHT22;56729;52.036;5.332;2023-03-04T04:24:49;6.80;98.30
69533;DHT22;56729;52.036;5.332;2023-03-04T04:25:54;6.80;98.30
69533;DHT22;56729;52.036;5.332;2023-03-04T04:26:56;6.80;98.40
69533;DHT22;56729;52.036;5.332;2023-03-04T04:27:58;6.80;98.30
69533;DHT22;56729;52.036;5.332;2023-03-04T04:29:00;6.80;98.30
69533;DHT22;56729;52.036;5.332;2023-03-04T04:30:03;6.80;98.30
69533;DHT22;56729;52.036;5.332;2023-03-04T04:31:08;6.80;98.30
69533;DHT22;56729;52.036;5.332;2023-03-04T04:32:10;6.80;98.40
69533;DHT22;56729;52.036;5.332;2023-03-04T04:33:13;6.80;98.30
69533;DHT22;56729;52.036;5.332;2023-03-04T04:34:17;6.80;98.60
69533;DHT22;56729;52.036;5.332;2023-03-04T04:35:19;6.70;98.40
69533;DHT22;56729;52.036;5.332;2023-03-04T04:36:21;6.80;98.50
69533;DHT22;56729;52.036;5.332;2023-03-04T04:37:22;6.80;98.50
69533;DHT22;56729;52.036;5.332;2023-03-04T04:38:24;6.80;98.50
69533;DHT22;56729;52.036;5.332;2023-03-04T04:39:26;6.80;98.50
69533;DHT22;56729;52.036;5.332;2023-03-04T04:40:28;6.80;98.60
69533;DHT22;56729;52.036;5.332;2023-03-04T04:41:35;6.80;98.50
69533;DHT22;56729;52.036;5.332;2023-03-04T04:42:37;6.80;98.50
69533;DHT22;56729;52.036;5.332;2023-03-04T04:43:39;6.80;98.60
69533;DHT22;56729;52.036;5.332;2023-03-04T04:44:41;6.80;98.50
69533;DHT22;56729;52.036;5.332;2023-03-04T04:45:43;6.80;98.40
69533;DHT22;56729;52.036;5.332;2023-03-04T04:46:44;6.80;98.40
69533;DHT22;56729;52.036;5.332;2023-03-04T04:47:46;6.80;98.50
69533;DHT22;56729;52.036;5.332;2023-03-04T04:48:48;6.80;98.50
69533;DHT22;56729;52.036;5.332;2023-03-04T04:49:50;6.80;98.50
69533;DHT22;56729;52.036;5.332;2023-03-04T04:50:54;6.80;98.50
69533;DHT22;56729;52.036;5.332;2023-03-04T04:51:56;6.70;98.40
69533;DHT22;56729;52.036;5.332;2023-03-04T04:52:59;6.70;98.50
69533;DHT22;56729;52.036;5.332;2023-03-04T04:54:01;6.80;98.50
69533;DHT22;56729;52.036;5.332;2023-03-04T04:55:04;6.80;98.60
69533;DHT22;56729;52.036;5.332;2023-03-04T04:56:15;6.80;98.60
69533;DHT22;56729;52.036;5.332;2023-03-04T04:57:17;6.80;98.60
69533;DHT22;56729;52.036;5.332;2023-03-04T04:58:19;6.80;98.70
69533;DHT22;56729;52.036;5.332;2023-03-04T04:59:21;6.80;98.70
69533;DHT22;56729;52.036;5.332;2023-03-04T05:00:23;6.80;98.80
69533;DHT22;56729;52.036;5.332;2023-03-04T05:01:26;6.80;98.70
69533;DHT22;56729;52.036;5.332;2023-03-04T05:02:28;6.80;98.60
69533;DHT22;56729;52.036;5.332;2023-03-04T05:03:31;6.80;98.60
69533;DHT22;56729;52.036;5.332;2023-03-04T05:04:33;6.80;98.60
69533;DHT22;56729;52.036;5.332;2023-03-04T05:05:35;6.80;98.60
69533;DHT22;56729;52.036;5.332;2023-03-04T05:06:37;6.70;98.70
69533;DHT22;56729;52.036;5.332;2023-03-04T05:07:40;6.80;98.80
69533;DHT22;56729;52.036;5.332;2023-03-04T05:08:41;6.80;98.90
69533;DHT22;56729;52.036;5.332;2023-03-04T05:09:43;6.80;98.90
69533;DHT22;56729;52.036;5.332;2023-03-04T05:10:46;6.80;99.00
69533;DHT22;56729;52.036;5.332;2023-03-04T05:11:48;6.80;99.00
69533;DHT22;56729;52.036;5.332;2023-03-04T05:12:50;6.80;99.00
69533;DHT22;56729;52.036;5.332;2023-03-04T05:13:52;6.80;99.00
69533;DHT22;56729;52.036;5.332;2023-03-04T05:14:54;6.70;98.90
69533;DHT22;56729;52.036;5.332;2023-03-04T05:15:57;6.70;98.90
69533;DHT22;56729;52.036;5.332;2023-03-04T05:16:59;6.70;98.90
69533;DHT22;56729;52.036;5.332;2023-03-04T05:18:01;6.70;98.80
69533;DHT22;56729;52.036;5.332;2023-03-04T05:19:02;6.70;98.90
69533;DHT22;56729;52.036;5.332;2023-03-04T05:20:05;6.70;99.00
69533;DHT22;56729;52.036;5.332;2023-03-04T05:21:10;6.70;99.10
69533;DHT22;56729;52.036;5.332;2023-03-04T05:22:12;6.70;99.10
69533;DHT22;56729;52.036;5.332;2023-03-04T05:23:14;6.70;99.20
69533;DHT22;56729;52.036;5.332;2023-03-04T05:24:16;6.70;99.30
69533;DHT22;56729;52.036;5.332;2023-03-04T05:25:18;6.70;99.80
69533;DHT22;56729;52.036;5.332;2023-03-04T05:26:19;6.70;99.30
69533;DHT22;56729;52.036;5.332;2023-03-04T05:27:21;6.70;99.30
69533;DHT22;56729;52.036;5.332;2023-03-04T05:28:24;6.70;99.40
69533;DHT22;56729;52.036;5.332;2023-03-04T05:29:26;6.70;99.40
69533;DHT22;56729;52.036;5.332;2023-03-04T05:30:28;6.70;99.40
69533;DHT22;56729;52.036;5.332;2023-03-04T05:31:32;6.70;99.50
69533;DHT22;56729;52.036;5.332;2023-03-04T05:32:33;6.70;99.50
69533;DHT22;56729;52.036;5.332;2023-03-04T05:33:35;6.70;99.60
69533;DHT22;56729;52.036;5.332;2023-03-04T05:34:37;6.70;99.90
69533;DHT22;56729;52.036;5.332;2023-03-04T05:35:40;6.70;99.70
69533;DHT22;56729;52.036;5.332;2023-03-04T05:36:42;6.70;99.70
69533;DHT22;56729;52.036;5.332;2023-03-04T05:37:44;6.70;99.70
69533;DHT22;56729;52.036;5.332;2023-03-04T05:38:46;6.70;99.70
69533;DHT22;56729;52.036;5.332;2023-03-04T05:39:48;6.70;99.80
69533;DHT22;56729;52.036;5.332;2023-03-04T05:40:56;6.70;99.90
69533;DHT22;56729;52.036;5.332;2023-03-04T05:41:59;6.70;99.90
69533;DHT22;56729;52.036;5.332;2023-03-04T05:43:02;6.70;99.90
69533;DHT22;56729;52.036;5.332;2023-03-04T05:44:04;6.70;99.90
69533;DHT22;56729;52.036;5.332;2023-03-04T05:45:06;6.70;99.90
69533;DHT22;56729;52.036;5.332;2023-03-04T05:46:17;6.70;99.90
69533;DHT22;56729;52.036;5.332;2023-03-04T05:47:19;6.60;99.90
69533;DHT22;56729;52.036;5.332;2023-03-04T05:48:21;6.60;99.90
69533;DHT22;56729;52.036;5.332;2023-03-04T05:49:23;6.60;99.90
69533;DHT22;56729;52.036;5.332;2023-03-04T05:50:25;6.60;99.90
69533;DHT22;56729;52.036;5.332;2023-03-04T05:51:28;6.60;99.90
69533;DHT22;56729;52.036;5.332;2023-03-04T05:52:30;6.60;99.90
69533;DHT22;56729;52.036;5.332;2023-03-04T05:53:33;6.60;99.90
69533;DHT22;56729;52.036;5.332;2023-03-04T05:54:38;6.60;99.90
69533;DHT22;56729;52.036;5.332;2023-03-04T05:55:40;6.70;99.90
69533;DHT22;56729;52.036;5.332;2023-03-04T05:56:47;6.60;99.90
69533;DHT22;56729;52.036;5.332;2023-03-04T05:57:49;6.60;99.90
69533;DHT22;56729;52.036;5.332;2023-03-04T05:58:51;6.70;99.90
69533;DHT22;56729;52.036;5.332;2023-03-04T05:59:53;6.60;99.90
69533;DHT22;56729;52.036;5.332;2023-03-04T06:00:59;6.60;99.90
69533;DHT22;56729;52.036;5.332;2023-03-04T06:02:01;6.60;99.90
69533;DHT22;56729;52.036;5.332;2023-03-04T06:03:02;6.60;99.90
69533;DHT22;56729;52.036;5.332;2023-03-04T06:04:05;6.60;99.90
69533;DHT22;56729;52.036;5.332;2023-03-04T06:05:08;6.60;99.90
69533;DHT22;56729;52.036;5.332;2023-03-04T06:06:10;6.60;99.90
69533;DHT22;56729;52.036;5.332;2023-03-04T06:07:12;6.60;99.90
69533;DHT22;56729;52.036;5.332;2023-03-04T06:08:14;6.60;99.90
69533;DHT22;56729;52.036;5.332;2023-03-04T06:09:16;6.50;99.90
69533;DHT22;56729;52.036;5.332;2023-03-04T06:10:18;6.60;99.90
69533;DHT22;56729;52.036;5.332;2023-03-04T06:11:20;6.50;99.90
69533;DHT22;56729;52.036;5.332;2023-03-04T06:12:22;6.50;99.90
69533;DHT22;56729;52.036;5.332;2023-03-04T06:13:25;6.60;99.90
69533;DHT22;56729;52.036;5.332;2023-03-04T06:14:27;6.60;99.90
69533;DHT22;56729;52.036;5.332;2023-03-04T06:15:29;6.50;99.90
69533;DHT22;56729;52.036;5.332;2023-03-04T06:16:31;6.50;99.90
69533;DHT22;56729;52.036;5.332;2023-03-04T06:17:33;6.60;99.90
69533;DHT22;56729;52.036;5.332;2023-03-04T06:18:35;6.50;99.90
69533;DHT22;56729;52.036;5.332;2023-03-04T06:19:37;6.60;99.90
69533;DHT22;56729;52.036;5.332;2023-03-04T06:20:39;6.50;99.90
69533;DHT22;56729;52.036;5.332;2023-03-04T06:21:41;6.50;99.90
69533;DHT22;56729;52.036;5.332;2023-03-04T06:22:43;6.50;99.90
69533;DHT22;56729;52.036;5.332;2023-03-04T06:23:45;6.50;99.90
69533;DHT22;56729;52.036;5.332;2023-03-04T06:24:47;6.60;99.90
69533;DHT22;56729;52.036;5.332;2023-03-04T06:25:53;6.50;99.90
69533;DHT22;56729;52.036;5.332;2023-03-04T06:26:55;6.50;99.90
69533;DHT22;56729;52.036;5.332;2023-03-04T06:27:57;6.50;99.90
69533;DHT22;56729;52.036;5.332;2023-03-04T06:28:59;6.50;99.90
69533;DHT22;56729;52.036;5.332;2023-03-04T06:30:01;6.60;99.90
69533;DHT22;56729;52.036;5.332;2023-03-04T06:31:05;6.50;99.90
69533;DHT22;56729;52.036;5.332;2023-03-04T06:32:07;6.60;99.90
69533;DHT22;56729;52.036;5.332;2023-03-04T06:33:10;6.60;99.90
69533;DHT22;56729;52.036;5.332;2023-03-04T06:34:11;6.50;99.90
69533;DHT22;56729;52.036;5.332;2023-03-04T06:35:14;6.60;99.90
69533;DHT22;56729;52.036;5.332;2023-03-04T06:36:16;6.60;99.90
69533;DHT22;56729;52.036;5.332;2023-03-04T06:37:18;6.60;99.90
69533;DHT22;56729;52.036;5.332;2023-03-04T06:38:20;6.60;99.90
69533;DHT22;56729;52.036;5.332;2023-03-04T06:39:22;6.60;99.90
69533;DHT22;56729;52.036;5.332;2023-03-04T06:40:23;6.60;99.90
69533;DHT22;56729;52.036;5.332;2023-03-04T06:41:25;6.60;99.90
69533;DHT22;56729;52.036;5.332;2023-03-04T06:42:27;6.60;99.90
69533;DHT22;56729;52.036;5.332;2023-03-04T06:43:29;6.60;99.90
69533;DHT22;56729;52.036;5.332;2023-03-04T06:44:31;6.60;99.90
69533;DHT22;56729;52.036;5.332;2023-03-04T06:45:32;6.60;99.90